Terminal Aerodrome Forecast
Issued by NWS Austin/San Antonio, TX

Home | Current Version | Previous Version | Text Only | Print | Product List | Glossary On
Versions: 1 2 3 4 5 6 7 8 9 10 11 12 13 14 15 16 17 18 19 20
000
FTUS44 KEWX 071731
TAFSAT
TAF
KSAT 071731Z 0718/0824 16015G25KT P6SM SCT050 BKN250
     FM080300 15014KT P6SM BKN020
     FM080600 15012KT P6SM OVC013
     FM081600 17015KT P6SM BKN035 BKN250
     FM081900 16016G26KT P6SM SCT050 BKN250=

USA.gov is the U.S. government's official web portal to all federal, state and local government web resources and services.